createdAt,value
2018-04-08T00:01:50.533Z,17.10
2018-04-08T00:04:18.741Z,17.10
2018-04-08T00:06:46.196Z,17.00
2018-04-08T00:09:14.401Z,17.00
2018-04-08T00:11:41.840Z,17.00
2018-04-08T00:14:09.282Z,17.00
2018-04-08T00:16:37.481Z,17.00
2018-04-08T00:19:04.933Z,16.90
2018-04-08T00:21:32.369Z,16.90
2018-04-08T00:24:00.581Z,16.90
2018-04-08T00:26:28.023Z,16.90
2018-04-08T00:28:56.227Z,16.90
2018-04-08T00:31:23.682Z,16.80
2018-04-08T00:33:51.123Z,16.80
2018-04-08T00:36:19.358Z,16.80
2018-04-08T00:38:46.809Z,16.80
2018-04-08T00:41:14.258Z,16.70
2018-04-08T00:43:41.718Z,16.60
2018-04-08T00:46:09.197Z,16.40
2018-04-08T00:48:36.635Z,16.30
2018-04-08T00:51:04.083Z,16.30
2018-04-08T00:53:32.287Z,16.30
2018-04-08T00:55:59.719Z,16.20
2018-04-08T00:58:27.931Z,16.40
2018-04-08T01:00:55.381Z,16.40
2018-04-08T01:03:22.841Z,16.50
2018-04-08T01:05:50.279Z,16.50
2018-04-08T01:08:17.719Z,16.50
2018-04-08T01:10:45.167Z,16.40
2018-04-08T01:13:12.626Z,16.30
2018-04-08T01:15:40.079Z,16.30
2018-04-08T01:18:07.536Z,16.30
2018-04-08T01:20:34.991Z,16.30
2018-04-08T01:23:02.440Z,16.30
2018-04-08T01:25:29.886Z,16.20
2018-04-08T01:27:58.121Z,16.10
2018-04-08T01:30:25.559Z,16.10
2018-04-08T01:32:52.997Z,16.00
2018-04-08T01:35:21.200Z,15.80
2018-04-08T01:37:48.660Z,15.80
2018-04-08T01:40:16.871Z,15.80
2018-04-08T01:42:44.317Z,15.70
2018-04-08T01:45:11.754Z,15.80
2018-04-08T01:47:39.194Z,15.80
2018-04-08T01:50:07.399Z,15.70
2018-04-08T01:52:34.838Z,15.70
2018-04-08T01:55:03.052Z,15.70
2018-04-08T01:57:30.510Z,15.70
2018-04-08T01:59:57.955Z,15.60
2018-04-08T02:02:26.157Z,15.60
2018-04-08T02:04:53.612Z,15.60
2018-04-08T02:07:21.047Z,15.60
2018-04-08T02:09:49.261Z,15.60
2018-04-08T02:12:16.702Z,15.60
2018-04-08T02:14:44.918Z,15.60
2018-04-08T02:17:12.368Z,15.60
2018-04-08T02:19:39.802Z,15.60
2018-04-08T02:22:08.031Z,15.40
2018-04-08T02:24:35.470Z,15.40
2018-04-08T02:27:02.951Z,15.40
2018-04-08T02:29:30.394Z,15.40
2018-04-08T02:31:57.837Z,15.40
2018-04-08T02:34:26.065Z,15.20
2018-04-08T02:36:53.494Z,15.20
2018-04-08T02:39:20.950Z,15.20
2018-04-08T02:41:48.415Z,15.30
2018-04-08T02:44:16.605Z,15.10
2018-04-08T02:46:44.070Z,15.10
2018-04-08T02:49:11.530Z,15.10
2018-04-08T02:51:38.959Z,15.10
2018-04-08T02:54:07.173Z,15.10
2018-04-08T02:56:34.620Z,15.10
2018-04-08T02:59:02.847Z,15.00
2018-04-08T03:01:30.298Z,15.00
2018-04-08T03:03:57.842Z,15.00
2018-04-08T03:06:25.305Z,15.00
2018-04-08T03:08:52.756Z,15.10
2018-04-08T03:11:20.219Z,15.00
2018-04-08T03:13:48.409Z,14.90
2018-04-08T03:16:15.885Z,14.80
2018-04-08T03:18:43.323Z,14.90
2018-04-08T03:21:10.778Z,14.90
2018-04-08T03:23:38.985Z,14.90
2018-04-08T03:26:06.447Z,14.80
2018-04-08T03:28:33.886Z,14.80
2018-04-08T03:31:01.345Z,14.70
2018-04-08T03:33:29.558Z,14.60
2018-04-08T03:35:57.015Z,14.60
2018-04-08T03:38:24.476Z,14.50
2018-04-08T03:40:51.930Z,14.50
2018-04-08T03:43:19.388Z,14.50
2018-04-08T03:45:46.859Z,14.60
2018-04-08T03:48:14.337Z,14.60
2018-04-08T03:50:41.788Z,14.60
2018-04-08T03:53:09.255Z,14.50
2018-04-08T03:55:36.689Z,14.50
2018-04-08T03:58:04.911Z,14.40
2018-04-08T04:00:32.351Z,14.30
2018-04-08T04:02:59.800Z,14.30
2018-04-08T04:05:27.251Z,14.30
2018-04-08T04:07:55.474Z,14.10
2018-04-08T04:10:22.922Z,14.10
2018-04-08T04:12:50.369Z,14.20
2018-04-08T04:15:17.843Z,14.30
2018-04-08T04:17:45.298Z,14.20
2018-04-08T04:20:24.640Z,14.30
2018-04-08T04:23:04.000Z,14.20
2018-04-08T04:25:57.058Z,14.20
2018-04-08T04:28:24.510Z,14.10
2018-04-08T04:30:51.976Z,14.00
2018-04-08T04:33:19.418Z,14.00
2018-04-08T04:35:46.875Z,14.00
2018-04-08T04:38:14.316Z,14.00
2018-04-08T04:40:41.793Z,14.00
2018-04-08T04:43:09.228Z,14.10
2018-04-08T04:45:37.469Z,14.00
2018-04-08T04:48:04.900Z,14.00
2018-04-08T04:50:32.371Z,13.90
2018-04-08T04:52:59.820Z,13.70
2018-04-08T04:55:27.263Z,13.70
2018-04-08T04:57:55.486Z,13.80
2018-04-08T05:00:22.935Z,13.80
2018-04-08T05:02:50.402Z,13.80
2018-04-08T05:05:17.837Z,13.70
2018-04-08T05:07:46.071Z,13.50
2018-04-08T05:10:14.278Z,13.50
2018-04-08T05:12:42.046Z,13.50
2018-04-08T05:15:09.494Z,13.60
2018-04-08T05:17:36.946Z,13.60
2018-04-08T05:20:04.412Z,13.50
2018-04-08T05:22:31.864Z,13.40
2018-04-08T05:24:59.318Z,13.40
2018-04-08T05:27:26.769Z,13.40
2018-04-08T05:29:54.240Z,13.40
2018-04-08T05:32:21.688Z,13.50
2018-04-08T05:34:49.150Z,13.50
2018-04-08T05:37:16.632Z,13.40
2018-04-08T05:39:44.079Z,13.50
2018-04-08T05:42:11.510Z,13.60
2018-04-08T05:44:39.722Z,13.40
2018-04-08T05:47:07.165Z,13.40
2018-04-08T05:49:34.649Z,13.40
2018-04-08T05:52:02.090Z,13.30
2018-04-08T05:54:30.314Z,13.30
2018-04-08T05:56:57.790Z,13.30
2018-04-08T05:59:25.208Z,13.20
2018-04-08T06:01:52.658Z,13.10
2018-04-08T06:04:20.136Z,13.00
2018-04-08T06:06:47.577Z,13.00
2018-04-08T06:09:15.808Z,13.30
2018-04-08T06:11:43.250Z,13.20
2018-04-08T06:14:10.716Z,13.30
2018-04-08T06:16:38.179Z,13.30
2018-04-08T06:19:05.636Z,13.30
2018-04-08T06:21:33.191Z,13.20
2018-04-08T06:24:00.655Z,13.30
2018-04-08T06:26:28.110Z,13.40
2018-04-08T06:28:55.553Z,13.30
2018-04-08T06:31:23.789Z,13.40
2018-04-08T06:33:51.246Z,13.40
2018-04-08T06:36:18.691Z,13.10
2018-04-08T06:38:46.159Z,13.20
2018-04-08T06:41:13.610Z,13.30
2018-04-08T06:43:41.072Z,13.10
2018-04-08T06:46:08.532Z,13.10
2018-04-08T06:48:35.977Z,13.30
2018-04-08T06:51:04.196Z,13.00
2018-04-08T06:53:31.655Z,12.90
2018-04-08T06:55:59.114Z,13.10
2018-04-08T06:58:26.580Z,13.20
2018-04-08T07:00:54.007Z,13.30
2018-04-08T07:03:22.225Z,13.40
2018-04-08T07:05:49.676Z,13.40
2018-04-08T07:08:17.134Z,13.30
2018-04-08T07:10:44.599Z,13.30
2018-04-08T07:13:12.062Z,13.40
2018-04-08T07:15:39.512Z,13.20
2018-04-08T07:18:06.965Z,13.10
2018-04-08T07:20:35.183Z,13.30
2018-04-08T07:23:02.636Z,13.30
2018-04-08T07:25:30.077Z,13.30
2018-04-08T07:27:57.535Z,13.30
2018-04-08T07:30:25.750Z,13.30
2018-04-08T07:32:53.191Z,13.30
2018-04-08T07:35:20.649Z,13.30
2018-04-08T07:37:48.100Z,13.30
2018-04-08T07:40:16.307Z,13.50
2018-04-08T07:42:43.760Z,13.50
2018-04-08T07:45:11.207Z,13.50
2018-04-08T07:47:38.658Z,13.70
2018-04-08T07:50:06.891Z,13.70
2018-04-08T07:52:35.094Z,13.70
2018-04-08T07:55:02.546Z,13.70
2018-04-08T07:57:29.984Z,13.70
2018-04-08T07:59:57.452Z,13.70
2018-04-08T08:02:24.907Z,13.70
2018-04-08T08:04:52.343Z,13.70
2018-04-08T08:07:19.804Z,13.80
2018-04-08T08:09:47.302Z,13.80
2018-04-08T08:12:14.761Z,13.90
2018-04-08T08:14:42.211Z,14.20
2018-04-08T08:17:09.657Z,14.40
2018-04-08T08:19:37.115Z,14.50
2018-04-08T08:22:05.332Z,14.60
2018-04-08T08:24:32.797Z,14.60
2018-04-08T08:27:00.243Z,14.80
2018-04-08T08:29:27.716Z,14.80
2018-04-08T08:31:55.182Z,14.90
2018-04-08T08:34:22.595Z,15.00
2018-04-08T08:36:50.908Z,14.80
2018-04-08T08:39:19.089Z,14.90
2018-04-08T08:41:46.563Z,14.90
2018-04-08T08:44:13.987Z,15.20
2018-04-08T08:46:42.207Z,15.40
2018-04-08T08:49:09.691Z,15.40
2018-04-08T08:51:37.114Z,15.40
2018-04-08T08:54:04.583Z,15.50
2018-04-08T08:56:32.043Z,15.50
2018-04-08T08:58:59.497Z,15.50
2018-04-08T09:01:26.933Z,15.50
2018-04-08T09:03:54.385Z,15.70
2018-04-08T09:06:21.844Z,15.70
2018-04-08T09:08:49.302Z,15.70
2018-04-08T09:11:16.757Z,15.80
2018-04-08T09:13:44.196Z,15.90
2018-04-08T09:16:11.648Z,16.10
2018-04-08T09:18:39.098Z,16.30
2018-04-08T09:21:11.489Z,16.40
2018-04-08T09:23:54.725Z,16.50
2018-04-08T09:26:22.190Z,16.20
2018-04-08T09:28:49.628Z,16.10
2018-04-08T09:31:17.105Z,16.00
2018-04-08T09:33:44.593Z,16.00
2018-04-08T09:36:12.057Z,16.10
2018-04-08T09:38:39.526Z,16.10
2018-04-08T09:41:06.994Z,16.20
2018-04-08T09:43:34.443Z,16.10
2018-04-08T09:46:01.899Z,16.10
2018-04-08T09:48:29.342Z,16.10
2018-04-08T09:50:56.820Z,16.20
2018-04-08T09:53:24.259Z,16.40
2018-04-08T09:55:51.689Z,16.50
2018-04-08T09:58:19.895Z,16.20
2018-04-08T10:01:04.047Z,16.20
2018-04-08T10:03:34.091Z,16.20
2018-04-08T10:06:01.552Z,15.90
2018-04-08T10:08:29.009Z,15.80
2018-04-08T10:10:56.472Z,15.80
2018-04-08T10:13:23.931Z,15.80
2018-04-08T10:15:51.392Z,15.70
2018-04-08T10:18:18.839Z,15.60
2018-04-08T10:20:46.294Z,15.60
2018-04-08T10:23:13.750Z,15.70
2018-04-08T10:25:41.192Z,15.70
2018-04-08T10:28:09.510Z,15.90
2018-04-08T10:30:36.951Z,15.90
2018-04-08T10:33:05.154Z,16.10
2018-04-08T10:35:32.604Z,16.00
2018-04-08T10:38:00.033Z,16.10
2018-04-08T10:40:27.483Z,16.10
2018-04-08T10:42:54.943Z,16.20
2018-04-08T10:45:22.378Z,16.20
2018-04-08T10:47:49.835Z,16.20
2018-04-08T10:50:17.289Z,16.20
2018-04-08T10:52:44.750Z,16.20
2018-04-08T10:55:12.193Z,16.30
2018-04-08T10:57:39.635Z,16.30
2018-04-08T11:00:07.874Z,16.40
2018-04-08T11:02:35.344Z,16.40
2018-04-08T11:05:02.800Z,16.50
2018-04-08T11:07:30.240Z,16.60
2018-04-08T11:09:57.704Z,16.60
2018-04-08T11:12:25.144Z,16.70
2018-04-08T11:14:53.367Z,16.80
2018-04-08T11:17:20.819Z,16.70
2018-04-08T11:19:48.247Z,16.80
2018-04-08T11:22:16.467Z,17.00
2018-04-08T11:24:43.915Z,17.00
2018-04-08T11:27:11.377Z,17.10
2018-04-08T11:29:38.810Z,17.20
2018-04-08T11:32:07.018Z,17.40
2018-04-08T11:34:34.480Z,17.40
2018-04-08T11:37:01.918Z,17.70
2018-04-08T11:39:30.126Z,18.10
2018-04-08T11:41:57.584Z,18.10
2018-04-08T11:44:25.050Z,18.10
2018-04-08T11:46:52.494Z,18.20
2018-04-08T11:49:19.941Z,18.20
2018-04-08T11:51:48.160Z,18.30
2018-04-08T11:54:15.607Z,18.30
2018-04-08T11:56:43.066Z,18.20
2018-04-08T11:59:10.526Z,18.20
2018-04-08T12:01:37.982Z,18.20
2018-04-08T12:04:06.198Z,18.40
2018-04-08T12:06:33.668Z,18.40
2018-04-08T12:09:01.106Z,18.60
2018-04-08T12:11:28.559Z,19.20
2018-04-08T12:13:56.016Z,19.40
2018-04-08T12:16:24.239Z,19.50
2018-04-08T12:18:51.693Z,19.40
2018-04-08T12:21:19.156Z,19.50
2018-04-08T12:23:46.597Z,19.30
2018-04-08T12:26:16.538Z,19.30
2018-04-08T12:28:43.996Z,19.40
2018-04-08T12:31:11.453Z,19.60
2018-04-08T12:33:38.924Z,19.30
2018-04-08T12:36:06.383Z,19.10
2018-04-08T12:38:33.860Z,18.80
2018-04-08T12:41:01.320Z,18.60
2018-04-08T12:43:28.798Z,18.40
2018-04-08T12:45:56.251Z,18.40
2018-04-08T12:48:23.697Z,17.90
2018-04-08T12:50:51.151Z,17.70
2018-04-08T12:53:18.626Z,17.50
2018-04-08T12:55:46.083Z,17.40
2018-04-08T12:58:13.521Z,17.10
2018-04-08T13:00:40.983Z,17.40
2018-04-08T13:03:09.201Z,17.70
2018-04-08T13:05:36.671Z,17.70
2018-04-08T13:08:04.122Z,17.30
2018-04-08T13:10:31.615Z,17.50
2018-04-08T13:12:59.024Z,17.70
2018-04-08T13:15:26.470Z,18.00
2018-04-08T13:17:54.701Z,18.10
2018-04-08T13:20:22.164Z,18.10
2018-04-08T13:22:50.392Z,18.20
2018-04-08T13:25:18.620Z,18.20
2018-04-08T13:27:46.079Z,18.10
2018-04-08T13:30:13.576Z,18.20
2018-04-08T13:32:41.045Z,18.20
2018-04-08T13:35:08.498Z,18.10
2018-04-08T13:37:35.962Z,18.20
2018-04-08T13:40:03.411Z,18.30
2018-04-08T13:42:30.918Z,18.40
2018-04-08T13:44:58.383Z,18.70
2018-04-08T13:47:25.863Z,18.60
2018-04-08T13:49:53.313Z,18.60
2018-04-08T13:52:20.772Z,18.20
2018-04-08T13:54:48.260Z,18.70
2018-04-08T13:57:15.718Z,19.10
2018-04-08T13:59:43.170Z,19.30
2018-04-08T14:02:10.621Z,19.30
2018-04-08T14:04:38.090Z,19.50
2018-04-08T14:07:05.547Z,19.50
2018-04-08T14:09:32.993Z,19.60
2018-04-08T14:12:01.213Z,19.00
2018-04-08T14:14:28.701Z,19.00
2018-04-08T14:16:56.210Z,19.30
2018-04-08T14:19:24.510Z,19.20
2018-04-08T14:21:51.975Z,19.20
2018-04-08T14:24:19.456Z,19.30
2018-04-08T14:26:46.915Z,19.10
2018-04-08T14:29:14.380Z,19.40
2018-04-08T14:31:41.818Z,19.20
2018-04-08T14:34:09.287Z,19.40
2018-04-08T14:36:36.733Z,19.40
2018-04-08T14:39:04.227Z,19.70
2018-04-08T14:41:31.686Z,19.70
2018-04-08T14:43:59.162Z,19.70
2018-04-08T14:46:26.655Z,19.90
2018-04-08T14:48:54.080Z,19.70
2018-04-08T14:51:21.544Z,19.70
2018-04-08T14:53:48.990Z,19.70
2018-04-08T14:56:16.470Z,19.70
2018-04-08T14:58:43.928Z,19.50
2018-04-08T15:01:11.381Z,19.80
2018-04-08T15:03:38.830Z,19.80
2018-04-08T15:06:06.307Z,19.70
2018-04-08T15:08:33.749Z,19.70
2018-04-08T15:11:01.564Z,19.90
2018-04-08T15:13:29.018Z,19.90
2018-04-08T15:15:56.473Z,19.70
2018-04-08T15:18:23.945Z,20.00
2018-04-08T15:20:51.398Z,20.00
2018-04-08T15:23:18.855Z,20.10
2018-04-08T15:25:46.314Z,20.10
2018-04-08T15:28:13.793Z,20.40
2018-04-08T15:30:41.266Z,20.10
2018-04-08T15:33:08.706Z,20.30
2018-04-08T15:35:36.170Z,20.50
2018-04-08T15:38:03.626Z,20.40
2018-04-08T15:40:31.088Z,20.50
2018-04-08T15:42:58.555Z,20.30
2018-04-08T15:45:26.017Z,20.50
2018-04-08T15:47:53.446Z,20.50
2018-04-08T15:50:21.679Z,20.30
2018-04-08T15:52:49.163Z,20.30
2018-04-08T15:55:16.627Z,20.50
2018-04-08T15:57:44.079Z,20.20
2018-04-08T16:00:11.534Z,20.30
2018-04-08T16:02:39.012Z,20.30
2018-04-08T16:05:06.461Z,20.40
2018-04-08T16:07:33.914Z,20.00
2018-04-08T16:10:01.374Z,20.00
2018-04-08T16:12:28.896Z,20.20
2018-04-08T16:14:57.160Z,20.10
2018-04-08T16:17:25.241Z,20.10
2018-04-08T16:19:52.688Z,20.00
2018-04-08T16:22:20.152Z,20.00
2018-04-08T16:24:47.607Z,20.30
2018-04-08T16:27:15.063Z,20.40
2018-04-08T16:29:42.531Z,20.30
2018-04-08T16:32:09.983Z,20.40
2018-04-08T16:34:37.459Z,20.40
2018-04-08T16:37:04.945Z,20.20
2018-04-08T16:39:32.398Z,20.50
2018-04-08T16:41:59.877Z,20.80
2018-04-08T16:44:28.098Z,20.40
2018-04-08T16:46:55.552Z,20.40
2018-04-08T16:49:23.044Z,20.40
2018-04-08T16:51:51.254Z,20.10
2018-04-08T16:54:18.728Z,20.10
2018-04-08T16:56:46.949Z,20.40
2018-04-08T16:59:15.383Z,20.40
2018-04-08T17:01:42.796Z,20.50
2018-04-08T17:04:10.247Z,20.80
2018-04-08T17:06:37.718Z,20.20
2018-04-08T17:09:06.002Z,19.40
2018-04-08T17:11:33.463Z,19.10
2018-04-08T17:14:00.915Z,19.60
2018-04-08T17:16:28.396Z,19.90
2018-04-08T17:18:55.880Z,19.90
2018-04-08T17:21:23.348Z,19.70
2018-04-08T17:23:50.840Z,19.40
2018-04-08T17:26:19.066Z,18.90
2018-04-08T17:28:46.510Z,18.90
2018-04-08T17:31:13.968Z,18.90
2018-04-08T17:33:41.435Z,19.10
2018-04-08T17:36:08.900Z,18.90
2018-04-08T17:38:36.399Z,18.90
2018-04-08T17:41:03.862Z,18.60
2018-04-08T17:43:31.331Z,18.30
2018-04-08T17:45:58.801Z,18.50
2018-04-08T17:48:26.261Z,18.20
2018-04-08T17:50:53.715Z,18.60
2018-04-08T17:53:21.177Z,18.60
2018-04-08T17:55:48.646Z,18.20
2018-04-08T17:58:16.088Z,18.60
2018-04-08T18:00:43.544Z,18.40
2018-04-08T18:03:11.016Z,18.00
2018-04-08T18:05:38.480Z,18.00
2018-04-08T18:08:05.947Z,18.40
2018-04-08T18:10:33.415Z,18.20
2018-04-08T18:13:00.895Z,18.60
2018-04-08T18:15:28.357Z,18.70
2018-04-08T18:17:55.830Z,18.80
2018-04-08T18:20:24.053Z,18.00
2018-04-08T18:22:51.544Z,17.90
2018-04-08T18:25:19.076Z,18.00
2018-04-08T18:27:47.308Z,17.60
2018-04-08T18:30:14.769Z,17.60
2018-04-08T18:32:43.014Z,17.60
2018-04-08T18:35:10.502Z,17.60
2018-04-08T18:37:37.967Z,17.30
2018-04-08T18:40:05.423Z,17.20
2018-04-08T18:42:32.885Z,17.70
2018-04-08T18:45:01.114Z,17.60
2018-04-08T18:47:29.336Z,17.70
2018-04-08T18:49:56.807Z,17.70
2018-04-08T18:52:25.030Z,17.90
2018-04-08T18:54:53.260Z,17.80
2018-04-08T18:57:20.723Z,17.90
2018-04-08T18:59:48.171Z,17.60
2018-04-08T19:02:15.644Z,17.20
2018-04-08T19:04:43.108Z,17.50
2018-04-08T19:07:11.335Z,17.40
2018-04-08T19:09:39.566Z,17.80
2018-04-08T19:12:07.045Z,17.80
2018-04-08T19:14:40.182Z,17.30
2018-04-08T19:17:08.414Z,17.80
2018-04-08T19:19:35.902Z,17.80
2018-04-08T19:22:03.383Z,17.50
2018-04-08T19:24:31.602Z,17.20
2018-04-08T19:26:59.075Z,17.20
2018-04-08T19:29:26.555Z,17.10
2018-04-08T19:31:59.168Z,17.50
2018-04-08T19:34:27.606Z,17.60
2018-04-08T19:36:55.098Z,17.60
2018-04-08T19:39:28.003Z,17.20
2018-04-08T19:41:56.502Z,17.30
2018-04-08T19:44:24.732Z,17.40
2018-04-08T19:46:52.974Z,17.40
2018-04-08T19:49:21.298Z,17.40
2018-04-08T19:51:48.762Z,17.50
2018-04-08T19:54:16.388Z,17.20
2018-04-08T19:56:43.880Z,17.30
2018-04-08T19:59:13.285Z,17.50
2018-04-08T20:01:40.745Z,17.40
2018-04-08T20:04:08.984Z,17.20
2018-04-08T20:06:38.031Z,17.60
2018-04-08T20:09:05.580Z,17.60
2018-04-08T20:11:33.686Z,17.30
2018-04-08T20:14:02.042Z,17.40
2018-04-08T20:16:30.503Z,17.60
2018-04-08T20:18:58.096Z,17.50
2018-04-08T20:21:25.758Z,17.50
2018-04-08T20:23:54.794Z,17.00
2018-04-08T20:26:23.127Z,17.10
2018-04-08T20:28:51.062Z,17.00
2018-04-08T20:31:18.613Z,17.10
2018-04-08T20:33:46.325Z,17.20
2018-04-08T20:36:13.929Z,17.00
2018-04-08T20:38:41.475Z,16.90
2018-04-08T20:41:09.170Z,16.60
2018-04-08T20:43:37.451Z,16.80
2018-04-08T20:46:05.042Z,17.10
2018-04-08T20:48:32.549Z,17.20
2018-04-08T20:51:00.007Z,16.80
2018-04-08T20:53:27.475Z,16.70
2018-04-08T20:55:54.944Z,16.90
2018-04-08T20:58:22.398Z,16.60
2018-04-08T21:00:49.853Z,16.40
2018-04-08T21:03:17.294Z,16.60
2018-04-08T21:05:45.519Z,16.50
2018-04-08T21:08:12.993Z,16.50
2018-04-08T21:10:40.443Z,16.40
2018-04-08T21:13:07.893Z,16.30
2018-04-08T21:15:35.391Z,16.30
2018-04-08T21:18:02.849Z,16.60
2018-04-08T21:20:30.392Z,16.00
2018-04-08T21:22:57.832Z,15.80
2018-04-08T21:25:25.267Z,15.60
2018-04-08T21:27:53.525Z,15.50
2018-04-08T21:30:21.773Z,15.60
2018-04-08T21:32:49.229Z,15.50
2018-04-08T21:35:16.680Z,15.40
2018-04-08T21:37:44.130Z,15.30
2018-04-08T21:40:12.347Z,15.20
2018-04-08T21:42:39.809Z,15.20
2018-04-08T21:45:07.257Z,15.60
2018-04-08T21:47:34.711Z,15.60
2018-04-08T21:50:02.157Z,15.60
2018-04-08T21:52:30.380Z,15.40
2018-04-08T21:54:57.840Z,15.40
2018-04-08T21:57:25.304Z,15.60
2018-04-08T21:59:52.760Z,16.00
2018-04-08T22:02:20.210Z,15.60
2018-04-08T22:04:47.672Z,15.80
2018-04-08T22:07:15.144Z,15.50
2018-04-08T22:09:42.597Z,15.40
2018-04-08T22:12:10.055Z,15.20
2018-04-08T22:14:37.506Z,15.50
2018-04-08T22:17:04.988Z,15.80
2018-04-08T22:19:32.453Z,15.80
2018-04-08T22:21:59.902Z,15.40
2018-04-08T22:24:27.383Z,15.50
2018-04-08T22:26:54.831Z,15.80
2018-04-08T22:29:22.278Z,15.90
2018-04-08T22:31:50.506Z,15.80
2018-04-08T22:34:17.983Z,15.80
2018-04-08T22:36:45.435Z,15.80
2018-04-08T22:39:12.907Z,15.80
2018-04-08T22:41:40.371Z,15.70
2018-04-08T22:44:07.797Z,15.30
2018-04-08T22:46:35.249Z,15.30
2018-04-08T22:49:02.743Z,15.30
2018-04-08T22:51:30.200Z,15.10
2018-04-08T22:53:57.662Z,15.20
2018-04-08T22:56:25.115Z,15.10
2018-04-08T22:58:52.571Z,15.60
2018-04-08T23:01:20.045Z,15.30
2018-04-08T23:03:47.502Z,15.50
2018-04-08T23:06:14.971Z,15.40
2018-04-08T23:08:42.426Z,15.10
2018-04-08T23:11:09.866Z,15.00
2018-04-08T23:13:37.312Z,15.10
2018-04-08T23:16:05.567Z,15.10
2018-04-08T23:18:33.031Z,15.10
2018-04-08T23:21:00.492Z,14.70
2018-04-08T23:23:27.959Z,14.90
2018-04-08T23:25:55.401Z,14.80
2018-04-08T23:28:22.871Z,15.00
2018-04-08T23:30:50.328Z,15.10
2018-04-08T23:33:18.539Z,15.40
2018-04-08T23:35:45.993Z,15.40
2018-04-08T23:38:13.431Z,15.40
2018-04-08T23:40:40.883Z,15.00
2018-04-08T23:43:08.348Z,14.90
2018-04-08T23:45:35.794Z,14.90
2018-04-08T23:48:03.309Z,14.70
2018-04-08T23:50:30.784Z,14.70
2018-04-08T23:52:58.233Z,14.20
2018-04-08T23:55:25.695Z,14.70
2018-04-08T23:57:53.166Z,14.80
